Time;durP1;ratioP1;P1;durP2;ratioP2;P2;SDS_P1;SDS_P2;PMS_P1;PMS_P2;Temp;Humidity;BMP_temperature;BMP_pressure;BME280_temperature;BME280_humidity;BME280_pressure;Samples;Min_cycle;Max_cycle;Signal;HPM_P1;HPM_P2
2020/12/18 00:01:04;;;;;;;46.07;17.87;;;2.50;99.90;;;;;;4448078;28;659449;-63
2020/12/18 00:03:52;;;;;;;43.40;17.00;;;2.50;99.90;;;;;;4471779;28;659312;-61
2020/12/18 00:06:39;;;;;;;46.53;17.97;;;2.50;99.90;;;;;;4445898;28;658752;-63
2020/12/18 00:09:26;;;;;;;44.33;18.27;;;2.40;99.90;;;;;;4462112;28;660406;-62
2020/12/18 00:12:13;;;;;;;40.03;16.43;;;2.50;99.90;;;;;;4465064;28;658521;-62
2020/12/18 00:15:00;;;;;;;40.57;17.27;;;2.70;99.90;;;;;;4446347;28;658672;-62
2020/12/18 00:17:47;;;;;;;43.50;17.03;;;2.60;99.90;;;;;;4453332;28;658615;-62
2020/12/18 00:20:34;;;;;;;26.47;10.60;;;2.60;99.90;;;;;;4433348;28;658478;-61
2020/12/18 00:23:21;;;;;;;41.40;16.37;;;2.60;99.90;;;;;;4459818;28;659904;-62
2020/12/18 00:26:08;;;;;;;36.07;14.60;;;2.60;99.90;;;;;;4453166;28;658706;-62
2020/12/18 00:28:55;;;;;;;45.83;18.43;;;2.50;99.90;;;;;;4441876;28;658560;-62
2020/12/18 00:31:43;;;;;;;40.80;17.47;;;2.60;99.90;;;;;;4467276;28;660542;-62
2020/12/18 00:34:30;;;;;;;34.05;13.35;;;2.60;99.90;;;;;;4441003;28;658654;-62
2020/12/18 00:37:17;;;;;;;39.70;17.00;;;2.70;99.90;;;;;;4467811;28;659849;-62
2020/12/18 00:40:04;;;;;;;39.93;16.07;;;2.50;99.90;;;;;;4444176;28;659332;-63
2020/12/18 00:42:51;;;;;;;40.43;17.07;;;2.50;99.90;;;;;;4459644;28;660185;-61
2020/12/18 00:45:38;;;;;;;45.00;17.63;;;2.60;99.90;;;;;;4458937;28;658888;-61
2020/12/18 00:48:26;;;;;;;44.57;17.73;;;2.60;99.90;;;;;;4440891;28;658458;-62
2020/12/18 00:51:16;;;;;;;50.70;20.23;;;2.50;99.90;;;;;;4458960;28;658587;-62
2020/12/18 00:54:03;;;;;;;45.40;18.97;;;2.50;99.90;;;;;;4442865;28;658313;-62
2020/12/18 00:56:50;;;;;;;48.70;19.93;;;2.70;99.90;;;;;;4439009;28;659049;-63
2020/12/18 00:59:37;;;;;;;53.10;19.67;;;2.60;99.90;;;;;;4455311;28;660194;-62
2020/12/18 01:02:24;;;;;;;46.27;17.77;;;2.50;99.90;;;;;;4450172;28;659022;-63
2020/12/18 01:05:12;;;;;;;42.53;15.97;;;2.70;99.90;;;;;;4463302;28;658252;-62
2020/12/18 01:07:59;;;;;;;37.80;14.13;;;2.60;99.90;;;;;;4453401;28;659513;-63
2020/12/18 01:10:46;;;;;;;43.63;16.03;;;2.50;99.90;;;;;;4463191;28;658688;-62
2020/12/18 01:13:33;;;;;;;46.33;18.75;;;2.60;99.90;;;;;;4459024;28;659076;-62
2020/12/18 01:16:20;;;;;;;47.67;17.90;;;2.60;99.90;;;;;;4435093;28;659012;-62
2020/12/18 01:19:07;;;;;;;47.77;19.03;;;2.50;99.90;;;;;;4460109;28;658967;-63
2020/12/18 01:21:55;;;;;;;42.00;17.20;;;2.50;99.90;;;;;;4439287;28;658844;-64
2020/12/18 01:24:42;;;;;;;46.83;18.97;;;2.50;99.90;;;;;;4459525;28;660256;-62
2020/12/18 01:27:29;;;;;;;33.23;13.30;;;2.50;99.90;;;;;;4440100;28;658813;-62
2020/12/18 01:30:16;;;;;;;50.13;17.67;;;2.70;99.90;;;;;;4454966;28;659040;-62
2020/12/18 01:33:03;;;;;;;52.05;19.90;;;2.60;99.90;;;;;;4460784;28;658673;-62
2020/12/18 01:35:51;;;;;;;48.93;18.30;;;2.60;99.90;;;;;;4433338;28;658850;-63
2020/12/18 01:38:39;;;;;;;25.47;8.17;;;2.60;99.90;;;;;;4450476;28;659012;-62
2020/12/18 01:41:26;;;;;;;52.30;18.97;;;2.70;99.90;;;;;;4436001;28;659052;-62
2020/12/18 01:44:13;;;;;;;21.77;8.70;;;2.70;99.90;;;;;;4449781;28;659157;-62
2020/12/18 01:47:00;;;;;;;55.90;21.60;;;2.80;99.90;;;;;;4431028;28;657679;-62
2020/12/18 01:49:47;;;;;;;43.77;17.53;;;2.70;99.90;;;;;;4466781;28;660130;-62
2020/12/18 01:52:34;;;;;;;52.93;19.23;;;2.70;99.90;;;;;;4443135;28;659367;-63
2020/12/18 01:55:22;;;;;;;52.55;19.17;;;2.70;99.90;;;;;;4456331;28;660100;-62
2020/12/18 01:58:09;;;;;;;46.17;16.60;;;2.80;99.90;;;;;;4437353;28;658612;-63
2020/12/18 02:00:56;;;;;;;42.67;17.65;;;2.80;99.90;;;;;;4469705;28;658545;-62
2020/12/18 02:03:43;;;;;;;48.53;19.07;;;2.70;99.90;;;;;;4459455;28;659349;-62
2020/12/18 02:06:31;;;;;;;15.47;6.27;;;2.60;99.90;;;;;;4435267;28;658853;-61
2020/12/18 02:09:18;;;;;;;47.50;19.10;;;2.80;99.90;;;;;;4459159;28;657489;-62
2020/12/18 02:12:05;;;;;;;40.80;14.63;;;2.80;99.90;;;;;;4438638;28;658611;-63
2020/12/18 02:14:52;;;;;;;44.97;18.73;;;2.70;99.90;;;;;;4456476;28;659302;-62
2020/12/18 02:17:39;;;;;;;42.17;15.90;;;2.70;99.90;;;;;;4439825;28;658389;-62
2020/12/18 02:20:26;;;;;;;37.87;14.93;;;2.80;99.90;;;;;;4461286;28;660058;-62
2020/12/18 02:23:13;;;;;;;45.00;17.83;;;2.70;99.90;;;;;;4457239;28;658968;-62
2020/12/18 02:26:05;;;;;;;36.57;14.53;;;2.70;99.90;;;;;;4439315;28;659901;-62
2020/12/18 02:28:52;;;;;;;46.27;17.83;;;2.80;99.90;;;;;;4435755;28;658941;-62
2020/12/18 02:31:39;;;;;;;49.70;19.07;;;2.70;99.90;;;;;;4431030;28;659371;-63
2020/12/18 02:34:26;;;;;;;52.30;18.80;;;2.50;99.90;;;;;;4449621;28;659265;-62
2020/12/18 02:37:16;;;;;;;52.87;19.23;;;2.50;99.90;;;;;;4451691;28;658982;-62
2020/12/18 02:40:03;;;;;;;49.37;19.97;;;2.50;99.90;;;;;;4434391;28;658743;-62
2020/12/18 02:42:51;;;;;;;55.13;19.50;;;2.60;99.90;;;;;;4438275;28;658416;-62
2020/12/18 02:45:38;;;;;;;28.80;8.77;;;2.60;99.90;;;;;;4462942;28;659296;-62
2020/12/18 02:48:26;;;;;;;52.00;20.03;;;2.80;99.90;;;;;;4437947;28;657645;-62
2020/12/18 02:51:13;;;;;;;46.07;18.00;;;2.70;99.90;;;;;;4451088;28;658261;-62
2020/12/18 02:54:00;;;;;;;29.97;11.20;;;2.60;99.90;;;;;;4437548;28;659473;-62
2020/12/18 02:56:47;;;;;;;53.77;20.13;;;2.50;99.90;;;;;;4457558;28;659498;-62
2020/12/18 02:59:35;;;;;;;49.60;19.03;;;2.50;99.90;;;;;;4431221;28;658597;-63
2020/12/18 03:02:22;;;;;;;49.70;19.10;;;2.50;99.90;;;;;;4453635;28;660177;-63
2020/12/18 03:05:09;;;;;;;49.13;18.58;;;2.50;99.90;;;;;;4438463;28;658899;-64
2020/12/18 03:07:56;;;;;;;56.30;19.85;;;2.50;99.90;;;;;;4468428;28;658111;-62
2020/12/18 03:10:43;;;;;;;50.00;17.77;;;2.40;99.90;;;;;;4451588;28;658990;-63
2020/12/18 03:13:30;;;;;;;47.30;18.20;;;2.50;99.90;;;;;;4430311;28;659385;-63
2020/12/18 03:16:18;;;;;;;46.60;17.30;;;2.60;99.90;;;;;;4455168;28;659290;-62
2020/12/18 03:19:05;;;;;;;24.03;10.03;;;2.70;99.90;;;;;;4438431;28;658545;-64
2020/12/18 03:21:52;;;;;;;43.50;17.33;;;2.80;99.90;;;;;;4456290;28;659371;-62
2020/12/18 03:24:39;;;;;;;48.97;17.52;;;2.80;99.90;;;;;;4439541;28;659897;-64
2020/12/18 03:27:26;;;;;;;40.87;16.17;;;2.80;99.90;;;;;;4453405;28;658981;-62
2020/12/18 03:30:13;;;;;;;47.70;18.25;;;2.80;99.90;;;;;;4452330;28;659064;-62
2020/12/18 03:33:01;;;;;;;49.73;18.50;;;2.70;99.90;;;;;;4432960;28;658845;-63
2020/12/18 03:35:48;;;;;;;53.87;19.33;;;2.60;99.90;;;;;;4447471;28;658598;-62
2020/12/18 03:38:35;;;;;;;49.33;18.93;;;2.50;99.90;;;;;;4437807;28;659871;-63
2020/12/18 03:41:22;;;;;;;47.53;18.57;;;2.60;99.90;;;;;;4456373;28;660186;-62
2020/12/18 03:44:09;;;;;;;60.13;21.50;;;2.60;99.90;;;;;;4443057;28;658823;-64
2020/12/18 03:46:56;;;;;;;54.50;19.50;;;2.60;99.90;;;;;;4468139;28;658197;-63
2020/12/18 03:49:44;;;;;;;55.45;19.17;;;2.50;99.90;;;;;;4458621;28;658226;-62
2020/12/18 03:52:31;;;;;;;59.65;20.45;;;2.60;99.90;;;;;;4442970;28;659873;-63
2020/12/18 03:55:18;;;;;;;39.57;13.73;;;2.60;99.90;;;;;;4464796;28;659739;-62
2020/12/18 03:58:05;;;;;;;50.93;18.80;;;2.60;99.90;;;;;;4447010;28;658888;-62
2020/12/18 04:00:52;;;;;;;57.38;20.77;;;2.80;99.90;;;;;;4465588;28;660104;-62
2020/12/18 04:03:39;;;;;;;53.37;19.10;;;2.70;99.90;;;;;;4448209;28;658865;-63
2020/12/18 04:06:27;;;;;;;46.70;19.55;;;2.70;99.90;;;;;;4469808;28;658538;-62
2020/12/18 04:09:14;;;;;;;51.33;19.73;;;2.80;99.90;;;;;;4441264;28;658613;-64
2020/12/18 04:12:01;;;;;;;47.80;19.00;;;2.80;99.90;;;;;;4463586;28;658745;-63
2020/12/18 04:14:48;;;;;;;52.42;21.08;;;2.80;99.90;;;;;;4465952;28;658857;-62
2020/12/18 04:17:35;;;;;;;53.70;20.60;;;2.70;99.90;;;;;;4438792;28;658902;-63
2020/12/18 04:20:22;;;;;;;51.13;20.90;;;2.70;99.90;;;;;;4461108;28;658833;-62
2020/12/18 04:23:10;;;;;;;54.00;20.67;;;2.80;99.90;;;;;;4433294;28;658439;-64
2020/12/18 04:25:57;;;;;;;51.13;19.07;;;2.70;99.90;;;;;;4469566;28;659643;-63
2020/12/18 04:28:44;;;;;;;48.07;17.90;;;2.80;99.90;;;;;;4447815;28;659291;-63
2020/12/18 04:31:31;;;;;;;50.23;19.97;;;2.80;99.90;;;;;;4472540;28;659089;-62
2020/12/18 04:34:18;;;;;;;49.35;19.15;;;2.70;99.90;;;;;;4469510;28;658933;-62
2020/12/18 04:37:05;;;;;;;47.37;19.10;;;2.80;99.90;;;;;;4445082;28;658602;-63
2020/12/18 04:39:53;;;;;;;43.07;17.30;;;2.80;99.90;;;;;;4461067;28;659980;-62
2020/12/18 04:42:40;;;;;;;42.30;16.07;;;2.70;99.90;;;;;;4450211;28;658562;-63
2020/12/18 04:45:27;;;;;;;44.93;17.67;;;2.70;99.90;;;;;;4463565;28;659801;-62
2020/12/18 04:48:14;;;;;;;52.13;18.58;;;2.60;99.90;;;;;;4451839;28;658578;-64
2020/12/18 04:51:01;;;;;;;40.90;15.30;;;2.70;99.90;;;;;;4472190;28;659261;-63
2020/12/18 04:53:49;;;;;;;46.27;18.20;;;2.80;99.90;;;;;;4457795;28;659691;-62
2020/12/18 04:56:40;;;;;;;49.27;19.30;;;2.80;99.90;;;;;;4421932;28;659775;-62
2020/12/18 04:59:27;;;;;;;50.13;19.27;;;2.70;99.90;;;;;;4426861;28;660408;-62
2020/12/18 05:02:14;;;;;;;52.40;19.40;;;2.60;99.90;;;;;;4424031;28;658638;-64
2020/12/18 05:05:01;;;;;;;49.58;17.27;;;2.60;99.90;;;;;;4447185;28;659232;-63
2020/12/18 05:07:48;;;;;;;47.50;17.80;;;2.60;99.90;;;;;;4450016;28;659031;-63
2020/12/18 05:10:35;;;;;;;19.02;7.53;;;2.80;99.90;;;;;;4424346;28;658643;-62
2020/12/18 05:13:23;;;;;;;38.10;15.43;;;2.90;99.90;;;;;;4444439;28;659215;-63
2020/12/18 05:16:10;;;;;;;27.40;9.90;;;2.90;99.90;;;;;;4429454;28;658503;-62
2020/12/18 05:19:02;;;;;;;34.83;13.80;;;3.00;99.90;;;;;;4447973;28;658897;-62
2020/12/18 05:21:50;;;;;;;54.47;18.60;;;2.80;99.90;;;;;;4405931;28;658326;-64
2020/12/18 05:24:37;;;;;;;59.13;20.50;;;2.70;99.90;;;;;;4446412;28;659382;-63
2020/12/18 05:27:24;;;;;;;61.63;20.93;;;2.60;99.90;;;;;;4430391;28;658577;-64
2020/12/18 05:30:12;;;;;;;48.17;16.93;;;2.50;99.90;;;;;;4446473;28;659431;-62
2020/12/18 05:32:59;;;;;;;53.83;19.53;;;2.50;99.90;;;;;;4423491;28;658729;-63
2020/12/18 05:35:46;;;;;;;54.10;19.77;;;2.70;99.90;;;;;;4443805;28;659777;-62
2020/12/18 05:38:35;;;;;;;40.20;15.00;;;2.80;99.90;;;;;;4441963;28;660006;-63
2020/12/18 05:41:23;;;;;;;39.90;14.70;;;2.90;99.90;;;;;;4421033;28;659875;-62
2020/12/18 05:44:13;;;;;;;18.30;7.40;;;2.80;99.90;;;;;;4424406;28;658692;-62
2020/12/18 05:47:05;;;;;;;63.47;20.83;;;2.90;99.90;;;;;;4427764;28;657584;-62
2020/12/18 05:49:52;;;;;;;57.10;21.47;;;2.80;99.90;;;;;;4426465;28;659852;-62
2020/12/18 05:52:39;;;;;;;61.93;21.07;;;2.70;99.90;;;;;;4425433;28;658724;-64
2020/12/18 05:55:26;;;;;;;56.43;21.63;;;2.70;99.90;;;;;;4457289;28;659028;-61
2020/12/18 05:58:13;;;;;;;56.47;21.30;;;2.70;99.90;;;;;;4450357;28;659086;-62
2020/12/18 06:01:01;;;;;;;55.67;21.60;;;2.80;99.90;;;;;;4439210;28;658841;-62
2020/12/18 06:03:48;;;;;;;58.23;21.20;;;2.90;99.90;;;;;;4456775;28;659719;-62
2020/12/18 06:06:35;;;;;;;42.17;15.00;;;3.00;99.90;;;;;;4447912;28;659131;-62
2020/12/18 06:09:23;;;;;;;49.33;17.57;;;3.00;99.90;;;;;;4455408;28;659070;-62
2020/12/18 06:12:11;;;;;;;53.73;19.73;;;3.00;99.90;;;;;;4431540;28;658820;-62
2020/12/18 06:14:58;;;;;;;71.40;26.20;;;2.90;99.90;;;;;;4463073;28;659563;-62
2020/12/18 06:17:46;;;;;;;65.30;22.07;;;2.80;99.90;;;;;;4430743;28;658826;-63
2020/12/18 06:20:35;;;;;;;68.30;25.67;;;2.80;99.90;;;;;;4465806;28;658723;-64
2020/12/18 06:23:22;;;;;;;56.77;20.13;;;2.70;99.90;;;;;;4427877;28;659093;-62
2020/12/18 06:26:09;;;;;;;53.20;19.80;;;2.80;99.90;;;;;;4439986;28;658532;-63
2020/12/18 06:29:02;;;;;;;63.17;24.98;;;3.00;99.90;;;;;;4463020;28;658790;-62
2020/12/18 06:31:49;;;;;;;70.23;27.60;;;2.90;99.90;;;;;;4406827;28;659067;-63
2020/12/18 06:34:36;;;;;;;24.73;9.47;;;2.80;99.90;;;;;;4456596;28;660079;-62
2020/12/18 06:37:31;;;;;;;61.33;21.83;;;2.80;99.90;;;;;;4467845;28;657420;-62
2020/12/18 06:40:27;;;;;;;84.20;28.57;;;2.80;99.90;;;;;;4438025;28;658557;-63
2020/12/18 06:43:14;;;;;;;47.63;16.53;;;2.70;99.90;;;;;;4415945;28;658269;-64
2020/12/18 06:46:05;;;;;;;19.33;9.40;;;2.90;99.90;;;;;;4465914;28;659043;-62
2020/12/18 06:48:52;;;;;;;61.13;23.20;;;2.90;99.90;;;;;;4431659;28;658348;-63
2020/12/18 06:51:39;;;;;;;87.53;28.47;;;2.80;99.90;;;;;;4439869;28;658647;-64
2020/12/18 06:54:27;;;;;;;26.03;10.00;;;2.70;99.90;;;;;;4456772;28;658155;-63
2020/12/18 06:57:23;;;;;;;31.90;10.07;;;2.60;99.90;;;;;;4439587;28;659578;-64
2020/12/18 07:00:29;;;;;;;98.87;31.90;;;2.70;99.90;;;;;;4410278;28;659015;-63
2020/12/18 07:03:38;;;;;;;107.20;34.77;;;2.70;99.90;;;;;;4434918;28;658540;-64
2020/12/18 07:06:27;;;;;;;100.43;31.40;;;2.70;99.90;;;;;;4411451;28;660236;-63
2020/12/18 07:09:15;;;;;;;99.07;33.43;;;2.70;99.90;;;;;;4447894;28;660551;-65
2020/12/18 07:12:03;;;;;;;116.27;32.97;;;2.60;99.90;;;;;;4456390;28;658588;-63
2020/12/18 07:14:50;;;;;;;55.70;18.43;;;2.60;99.90;;;;;;4437440;28;660363;-62
2020/12/18 07:17:46;;;;;;;105.97;29.40;;;2.60;99.90;;;;;;4451940;28;660317;-63
2020/12/18 07:20:33;;;;;;;111.70;33.67;;;2.60;99.90;;;;;;4427330;28;659574;-63
2020/12/18 07:23:20;;;;;;;107.47;32.60;;;2.60;99.90;;;;;;4429365;28;659626;-63
2020/12/18 07:26:08;;;;;;;111.23;33.30;;;2.50;99.90;;;;;;4455874;28;659671;-63
2020/12/18 07:28:56;;;;;;;102.87;31.57;;;2.50;99.90;;;;;;4432956;28;660124;-64
2020/12/18 07:31:42;;;;;;;101.00;31.97;;;2.50;99.90;;;;;;4455910;28;660597;-63
2020/12/18 07:34:32;;;;;;;104.03;29.73;;;2.60;99.90;;;;;;4442441;28;659574;-65
2020/12/18 07:37:19;;;;;;;101.83;31.97;;;2.50;99.90;;;;;;4446732;28;659733;-64
2020/12/18 07:40:06;;;;;;;59.57;18.33;;;2.40;99.90;;;;;;4466226;28;660291;-63
2020/12/18 07:42:53;;;;;;;93.80;27.50;;;2.50;99.90;;;;;;4466819;28;659379;-63
2020/12/18 07:45:43;;;;;;;114.30;32.53;;;2.50;99.90;;;;;;4446896;28;658902;-63
2020/12/18 07:48:31;;;;;;;88.27;27.70;;;2.40;99.90;;;;;;4442429;28;660822;-63
2020/12/18 07:51:19;;;;;;;113.50;31.77;;;2.40;99.90;;;;;;4466861;28;658815;-64
2020/12/18 07:54:09;;;;;;;89.47;28.87;;;2.40;99.90;;;;;;4442360;28;661010;-63
2020/12/18 07:57:04;;;;;;;65.77;21.30;;;2.70;99.90;;;;;;4443866;28;660575;-63
2020/12/18 07:59:51;;;;;;;83.17;27.67;;;2.70;99.90;;;;;;4423380;28;659778;-63
2020/12/18 08:02:39;;;;;;;89.83;27.50;;;2.70;99.90;;;;;;4470450;28;658788;-63
2020/12/18 08:05:27;;;;;;;70.23;23.83;;;2.60;99.90;;;;;;4451072;28;659465;-63
2020/12/18 08:08:14;;;;;;;75.37;23.50;;;2.70;99.90;;;;;;4460898;28;658398;-64
2020/12/18 08:11:04;;;;;;;88.73;26.80;;;2.70;99.90;;;;;;4470421;28;660056;-63
2020/12/18 08:13:51;;;;;;;69.43;23.60;;;2.70;99.90;;;;;;4447668;28;659811;-63
2020/12/18 08:16:38;;;;;;;69.07;21.73;;;2.60;99.90;;;;;;4469054;28;659055;-64
2020/12/18 08:19:29;;;;;;;64.73;21.40;;;2.60;99.90;;;;;;4451241;28;658738;-64
2020/12/18 08:22:16;;;;;;;77.13;25.13;;;2.80;99.90;;;;;;4446950;28;659752;-63
2020/12/18 08:25:03;;;;;;;82.90;24.73;;;2.80;99.90;;;;;;4470009;28;658350;-63
2020/12/18 08:27:53;;;;;;;86.30;26.73;;;2.70;99.90;;;;;;4446977;28;659269;-64
2020/12/18 08:30:40;;;;;;;80.60;25.37;;;2.70;99.90;;;;;;4446962;28;659183;-64
2020/12/18 08:33:27;;;;;;;78.33;24.17;;;2.80;99.90;;;;;;4470139;28;660109;-64
2020/12/18 08:36:15;;;;;;;72.43;25.20;;;2.80;99.90;;;;;;4450721;28;658450;-65
2020/12/18 08:39:04;;;;;;;80.87;24.53;;;2.80;99.90;;;;;;4469811;28;659223;-64
2020/12/18 08:41:52;;;;;;;33.97;10.50;;;2.90;99.90;;;;;;4446637;28;660339;-63
2020/12/18 08:44:40;;;;;;;81.83;25.30;;;3.00;99.90;;;;;;4452542;28;658450;-65
2020/12/18 08:47:28;;;;;;;75.73;25.47;;;2.90;99.90;;;;;;4469862;28;660037;-63
2020/12/18 08:50:17;;;;;;;78.93;23.65;;;3.00;99.90;;;;;;4450667;28;658704;-63
2020/12/18 08:53:12;;;;;;;66.80;18.27;;;3.10;99.90;;;;;;4450191;28;658948;-63
2020/12/18 08:56:06;;;;;;;71.27;25.93;;;3.20;99.90;;;;;;4449296;28;658315;-64
2020/12/18 08:59:03;;;;;;;72.13;24.70;;;3.20;99.90;;;;;;4446634;28;659404;-63
2020/12/18 09:01:50;;;;;;;83.10;26.50;;;3.20;99.90;;;;;;4423238;28;660189;-64
2020/12/18 09:04:37;;;;;;;93.53;28.83;;;3.20;99.90;;;;;;4445187;28;659508;-63
2020/12/18 09:07:37;;;;;;;87.05;27.05;;;3.10;99.90;;;;;;4450360;28;658643;-65
2020/12/18 09:10:35;;;;;;;78.13;24.73;;;3.10;99.90;;;;;;4426139;28;658653;-64
2020/12/18 09:13:23;;;;;;;83.90;26.53;;;3.10;99.90;;;;;;4445686;28;658611;-63
2020/12/18 09:16:10;;;;;;;70.60;25.93;;;3.20;99.90;;;;;;4447132;28;659422;-64
2020/12/18 09:18:59;;;;;;;68.03;23.00;;;3.30;99.90;;;;;;4469157;28;659399;-63
2020/12/18 09:21:46;;;;;;;88.03;28.57;;;3.40;99.90;;;;;;4449619;28;659258;-63
2020/12/18 09:24:36;;;;;;;84.30;27.75;;;3.30;99.90;;;;;;4469164;28;659018;-63
2020/12/18 09:27:26;;;;;;;85.10;27.03;;;3.40;99.90;;;;;;4445991;28;659413;-63
2020/12/18 09:30:21;;;;;;;84.95;27.02;;;3.40;99.90;;;;;;4445421;28;659625;-64
2020/12/18 09:33:09;;;;;;;107.60;30.63;;;3.40;99.90;;;;;;4445932;28;658407;-62
2020/12/18 09:35:57;;;;;;;100.00;30.80;;;3.40;99.90;;;;;;4442968;28;660589;-63
2020/12/18 09:38:47;;;;;;;105.93;31.50;;;3.40;99.90;;;;;;4448529;28;660609;-64
2020/12/18 09:41:34;;;;;;;111.10;32.97;;;3.50;99.90;;;;;;4448182;28;659606;-64
2020/12/18 09:44:22;;;;;;;77.60;25.60;;;3.60;99.90;;;;;;4467469;28;661556;-63
2020/12/18 09:47:09;;;;;;;45.50;16.90;;;4.10;99.90;;;;;;4449501;28;658535;-64
2020/12/18 09:49:56;;;;;;;69.83;25.10;;;4.40;99.90;;;;;;4468965;28;660454;-63
2020/12/18 09:52:43;;;;;;;46.10;16.33;;;4.50;99.90;;;;;;4468664;28;658613;-63
2020/12/18 09:55:30;;;;;;;69.57;24.87;;;4.60;99.90;;;;;;4446179;28;658877;-64
2020/12/18 09:58:17;;;;;;;56.90;18.05;;;4.50;99.90;;;;;;4468657;28;659676;-63
2020/12/18 10:01:05;;;;;;;63.70;24.05;;;4.50;99.90;;;;;;4449548;28;658773;-64
2020/12/18 10:03:52;;;;;;;81.50;28.63;;;4.70;99.90;;;;;;4446557;28;658857;-63
2020/12/18 10:06:39;;;;;;;74.77;27.33;;;4.50;99.90;;;;;;4446748;28;658596;-65
2020/12/18 10:09:28;;;;;;;78.60;30.70;;;4.60;99.90;;;;;;4468250;28;660361;-63
2020/12/18 10:12:15;;;;;;;81.33;30.83;;;4.40;99.90;;;;;;4445898;28;658653;-63
2020/12/18 10:15:02;;;;;;;64.77;22.83;;;4.30;99.90;;;;;;4468233;28;659104;-63
2020/12/18 10:17:50;;;;;;;68.97;28.87;;;4.30;99.90;;;;;;4449531;28;658588;-65
2020/12/18 10:20:37;;;;;;;60.97;22.03;;;4.40;99.90;;;;;;4469386;28;659853;-63
2020/12/18 10:23:25;;;;;;;48.87;16.97;;;4.40;99.90;;;;;;4457704;28;658297;-65
2020/12/18 10:26:12;;;;;;;51.43;18.43;;;4.70;99.90;;;;;;4468305;28;659667;-63
2020/12/18 10:28:59;;;;;;;47.38;19.05;;;4.80;99.90;;;;;;4448877;28;658820;-64
2020/12/18 10:31:46;;;;;;;66.87;23.23;;;4.80;99.90;;;;;;4471933;28;658497;-63
2020/12/18 10:34:34;;;;;;;67.82;26.33;;;4.70;99.90;;;;;;4468117;28;658646;-63
2020/12/18 10:37:22;;;;;;;68.17;27.03;;;4.60;99.90;;;;;;4449033;28;659730;-63
2020/12/18 10:40:09;;;;;;;63.88;25.25;;;4.60;99.90;;;;;;4453252;28;658744;-64
2020/12/18 10:42:56;;;;;;;61.27;24.63;;;4.60;99.90;;;;;;4471924;28;659671;-63
2020/12/18 10:45:43;;;;;;;63.03;25.50;;;4.70;99.90;;;;;;4467652;28;659292;-63
2020/12/18 10:48:32;;;;;;;58.75;22.52;;;4.80;99.90;;;;;;4449027;28;658901;-63
2020/12/18 10:51:21;;;;;;;60.73;26.30;;;4.70;99.90;;;;;;4448423;28;659108;-64
2020/12/18 10:54:08;;;;;;;62.43;26.73;;;4.80;99.90;;;;;;4467223;28;658750;-63
2020/12/18 10:56:55;;;;;;;61.17;24.20;;;4.90;99.90;;;;;;4448708;28;658827;-63
2020/12/18 10:59:42;;;;;;;65.77;27.20;;;4.90;99.90;;;;;;4467427;28;659616;-63
2020/12/18 11:02:33;;;;;;;64.83;27.40;;;4.90;99.90;;;;;;4437263;28;658622;-63
2020/12/18 11:05:20;;;;;;;58.10;23.23;;;4.80;99.90;;;;;;4433538;28;658540;-63
2020/12/18 11:08:07;;;;;;;53.40;20.33;;;5.00;99.90;;;;;;4471436;28;659473;-63
2020/12/18 11:10:54;;;;;;;64.30;26.70;;;5.10;99.90;;;;;;4448768;28;658499;-63
2020/12/18 11:13:41;;;;;;;66.97;26.43;;;5.10;99.90;;;;;;4467665;28;660897;-63
2020/12/18 11:16:28;;;;;;;56.67;23.70;;;5.00;99.90;;;;;;4467124;28;658624;-63
2020/12/18 11:19:16;;;;;;;66.50;25.90;;;5.20;99.90;;;;;;4448345;28;659159;-63
2020/12/18 11:22:02;;;;;;;57.63;25.10;;;5.20;99.90;;;;;;4467138;28;658188;-63
2020/12/18 11:24:50;;;;;;;63.70;25.97;;;5.50;99.90;;;;;;4447898;28;658505;-64
2020/12/18 11:27:37;;;;;;;62.47;23.43;;;5.70;99.90;;;;;;4467088;28;659163;-63
2020/12/18 11:30:24;;;;;;;56.33;24.17;;;5.80;99.90;;;;;;4447602;28;659416;-63
2020/12/18 11:33:11;;;;;;;51.13;24.07;;;5.90;99.90;;;;;;4466576;28;660400;-63
2020/12/18 11:35:58;;;;;;;57.30;24.10;;;5.90;99.90;;;;;;4467065;28;658600;-63
2020/12/18 11:38:45;;;;;;;53.53;24.27;;;5.80;99.90;;;;;;4447959;28;658489;-63
2020/12/18 11:41:33;;;;;;;50.90;21.00;;;5.80;99.90;;;;;;4467057;28;660696;-62
2020/12/18 11:44:20;;;;;;;57.60;24.03;;;6.00;99.90;;;;;;4447861;28;659416;-63
2020/12/18 11:47:07;;;;;;;31.87;10.83;;;5.90;99.90;;;;;;4466958;28;659155;-62
2020/12/18 11:49:54;;;;;;;52.80;22.67;;;6.00;99.90;;;;;;4448069;28;658897;-63
2020/12/18 11:52:41;;;;;;;58.30;25.43;;;6.00;99.90;;;;;;4467131;28;659843;-63
2020/12/18 11:55:28;;;;;;;54.33;23.58;;;5.90;99.90;;;;;;4467140;28;658983;-63
2020/12/18 11:58:16;;;;;;;61.43;26.73;;;6.00;99.90;;;;;;4448010;28;659376;-63
2020/12/18 12:01:03;;;;;;;57.78;25.08;;;5.80;99.90;;;;;;4467065;28;658127;-62
2020/12/18 12:03:50;;;;;;;60.53;25.87;;;5.90;99.90;;;;;;4426170;28;658782;-63
2020/12/18 12:06:37;;;;;;;70.37;27.17;;;6.00;99.90;;;;;;4463991;28;659810;-63
2020/12/18 12:09:24;;;;;;;56.50;22.93;;;6.40;99.90;;;;;;4448034;28;658529;-64
2020/12/18 12:12:11;;;;;;;44.83;17.98;;;6.90;99.90;;;;;;4471070;28;658377;-63
2020/12/18 12:14:59;;;;;;;44.50;17.47;;;7.20;99.90;;;;;;4466789;28;659354;-63
2020/12/18 12:17:46;;;;;;;51.30;23.43;;;7.50;99.90;;;;;;4446759;28;659003;-63
2020/12/18 12:20:33;;;;;;;48.60;22.80;;;7.90;99.90;;;;;;4466750;28;658732;-63
2020/12/18 12:23:20;;;;;;;54.73;24.13;;;8.40;99.90;;;;;;4446933;28;659262;-63
2020/12/18 12:26:10;;;;;;;57.07;22.97;;;8.20;99.90;;;;;;4466795;28;659298;-62
2020/12/18 12:28:57;;;;;;;49.07;22.47;;;8.30;99.90;;;;;;4443712;28;660030;-63
2020/12/18 12:31:45;;;;;;;50.53;19.90;;;8.20;99.90;;;;;;4447455;28;658586;-64
2020/12/18 12:34:35;;;;;;;44.63;20.27;;;8.10;99.90;;;;;;4466488;28;659409;-62
2020/12/18 12:37:22;;;;;;;50.33;22.80;;;8.10;99.90;;;;;;4443425;28;659711;-63
2020/12/18 12:40:09;;;;;;;52.87;21.83;;;8.10;99.90;;;;;;4447450;28;660177;-63
2020/12/18 12:42:56;;;;;;;52.37;23.07;;;8.10;99.90;;;;;;4470893;28;658615;-62
2020/12/18 12:45:43;;;;;;;47.67;22.17;;;7.80;99.90;;;;;;4466044;28;658316;-62
2020/12/18 12:48:30;;;;;;;55.90;24.10;;;7.60;99.90;;;;;;4450629;28;659855;-64
2020/12/18 12:51:17;;;;;;;47.30;21.83;;;7.50;99.90;;;;;;4469356;28;660160;-63
2020/12/18 12:54:04;;;;;;;45.77;19.97;;;7.70;99.90;;;;;;4449917;28;658656;-62
2020/12/18 12:56:52;;;;;;;49.50;21.03;;;8.00;99.90;;;;;;4469220;28;660974;-63
2020/12/18 12:59:39;;;;;;;48.23;21.17;;;8.70;99.90;;;;;;4455381;28;658482;-63
2020/12/18 13:02:26;;;;;;;30.37;13.87;;;9.30;99.90;;;;;;4463391;28;659680;-64
2020/12/18 13:05:14;;;;;;;54.83;22.93;;;9.30;99.90;;;;;;4455106;28;658577;-62
2020/12/18 13:08:01;;;;;;;51.60;23.87;;;8.90;99.90;;;;;;4446348;28;659420;-63
2020/12/18 13:10:48;;;;;;;50.77;24.60;;;8.80;99.90;;;;;;4469035;28;659164;-63
2020/12/18 13:13:35;;;;;;;52.40;23.90;;;9.30;99.90;;;;;;4450115;28;658539;-62
2020/12/18 13:16:22;;;;;;;44.03;22.00;;;9.50;99.70;;;;;;4469433;28;659812;-62
2020/12/18 13:19:09;;;;;;;48.17;21.90;;;9.50;95.50;;;;;;4457924;28;658530;-64
2020/12/18 13:21:57;;;;;;;35.10;15.07;;;9.80;93.20;;;;;;4469437;28;658863;-63
2020/12/18 13:24:44;;;;;;;42.58;19.15;;;10.00;88.50;;;;;;4455333;28;658653;-64
2020/12/18 13:27:31;;;;;;;50.83;23.45;;;10.20;86.30;;;;;;4472120;28;660793;-63
2020/12/18 13:30:18;;;;;;;41.67;22.23;;;10.00;83.80;;;;;;4468060;28;659883;-63
2020/12/18 13:33:05;;;;;;;51.93;23.00;;;10.40;83.30;;;;;;4448656;28;660113;-63
2020/12/18 13:35:52;;;;;;;49.83;22.37;;;10.40;81.00;;;;;;4471811;28;660454;-62
2020/12/18 13:38:40;;;;;;;52.73;23.07;;;10.30;81.80;;;;;;4453518;28;659836;-64
2020/12/18 13:41:27;;;;;;;53.40;24.30;;;10.50;80.60;;;;;;4467956;28;660298;-62
2020/12/18 13:44:14;;;;;;;50.07;23.43;;;10.40;81.00;;;;;;4448692;28;659813;-64
2020/12/18 13:47:01;;;;;;;52.97;25.53;;;10.60;79.30;;;;;;4471857;28;660715;-62
2020/12/18 13:49:48;;;;;;;57.27;27.10;;;11.30;77.60;;;;;;4467346;28;659537;-62
2020/12/18 13:52:35;;;;;;;62.17;27.90;;;11.60;75.10;;;;;;4448397;28;660837;-62
2020/12/18 13:55:23;;;;;;;51.13;26.13;;;11.60;74.20;;;;;;4449784;28;660318;-62
2020/12/18 13:58:10;;;;;;;60.23;28.73;;;11.40;74.70;;;;;;4426428;28;659444;-62
2020/12/18 14:00:57;;;;;;;56.47;27.77;;;11.20;73.50;;;;;;4449484;28;660699;-62
2020/12/18 14:03:44;;;;;;;57.80;27.97;;;11.30;74.40;;;;;;4409950;28;660295;-63
2020/12/18 14:06:31;;;;;;;56.10;27.50;;;11.00;74.70;;;;;;4444581;28;660484;-63
2020/12/18 14:09:19;;;;;;;54.87;26.40;;;10.90;75.50;;;;;;4446307;28;661033;-64